createdAt,value
2022-09-15T00:00:55.107Z,2.90
2022-09-15T00:03:24.282Z,3.30
2022-09-15T00:05:54.457Z,3.33
2022-09-15T00:08:23.320Z,2.57
2022-09-15T00:10:52.649Z,2.60
2022-09-15T00:13:23.216Z,1.90
2022-09-15T00:15:51.691Z,1.93
2022-09-15T00:18:19.674Z,2.00
2022-09-15T00:20:47.875Z,1.93
2022-09-15T00:23:17.093Z,2.40
2022-09-15T00:25:46.556Z,2.20
2022-09-15T00:28:15.458Z,2.77
2022-09-15T00:30:46.381Z,2.27
2022-09-15T00:33:15.908Z,2.37
2022-09-15T00:35:45.440Z,1.60
2022-09-15T00:38:14.862Z,1.50
2022-09-15T00:40:47.196Z,1.97
2022-09-15T00:43:16.498Z,2.20
2022-09-15T00:45:45.908Z,1.40
2022-09-15T00:48:21.671Z,1.63
2022-09-15T00:50:54.184Z,1.73
2022-09-15T00:53:23.681Z,1.80
2022-09-15T00:55:52.501Z,1.50
2022-09-15T00:58:24.603Z,1.77
2022-09-15T01:00:57.926Z,1.40
2022-09-15T01:03:27.225Z,1.57
2022-09-15T01:05:58.888Z,1.60
2022-09-15T01:08:32.844Z,1.30
2022-09-15T01:11:01.322Z,1.80
2022-09-15T01:13:30.224Z,1.30
2022-09-15T01:16:06.344Z,1.30
2022-09-15T01:18:43.845Z,1.07
2022-09-15T01:21:34.562Z,1.50
2022-09-15T01:24:44.898Z,1.60
2022-09-15T01:27:42.085Z,1.43
2022-09-15T01:30:14.114Z,2.03
2022-09-15T01:33:03.814Z,1.37
2022-09-15T01:35:49.610Z,1.37
2022-09-15T01:38:25.820Z,1.27
2022-09-15T01:40:58.132Z,1.40
2022-09-15T01:43:28.130Z,1.20
2022-09-15T01:45:58.573Z,1.20
2022-09-15T01:48:29.103Z,1.23
2022-09-15T01:51:01.213Z,1.13
2022-09-15T01:53:30.158Z,1.17
2022-09-15T01:56:01.780Z,0.73
2022-09-15T01:58:30.006Z,0.80
2022-09-15T02:01:04.140Z,1.10
2022-09-15T02:03:36.112Z,1.30
2022-09-15T02:06:07.202Z,1.00
2022-09-15T02:08:42.775Z,1.23
2022-09-15T02:11:16.675Z,1.07
2022-09-15T02:13:54.128Z,1.20
2022-09-15T02:16:25.770Z,1.40
2022-09-15T02:19:19.716Z,1.60
2022-09-15T02:22:00.335Z,2.00
2022-09-15T02:24:33.929Z,2.63
2022-09-15T02:27:03.963Z,2.40
2022-09-15T02:29:36.272Z,1.80
2022-09-15T02:32:08.179Z,1.70
2022-09-15T02:34:41.383Z,1.80
2022-09-15T02:37:10.732Z,1.90
2022-09-15T02:39:43.318Z,1.30
2022-09-15T02:42:11.214Z,1.50
2022-09-15T02:44:39.220Z,1.87
2022-09-15T02:47:08.741Z,1.40
2022-09-15T02:49:36.582Z,1.33
2022-09-15T02:52:04.652Z,1.00
2022-09-15T02:54:32.550Z,0.83
2022-09-15T02:57:01.159Z,1.07
2022-09-15T02:59:49.606Z,0.70
2022-09-15T03:02:20.422Z,0.60
2022-09-15T03:04:48.823Z,0.50
2022-09-15T03:07:17.104Z,0.50
2022-09-15T03:09:45.133Z,0.53
2022-09-15T03:12:13.218Z,0.80
2022-09-15T03:14:41.063Z,0.60
2022-09-15T03:17:08.971Z,0.80
2022-09-15T03:19:38.407Z,0.40
2022-09-15T03:22:06.343Z,0.70
2022-09-15T03:24:34.265Z,0.50
2022-09-15T03:27:02.553Z,0.40
2022-09-15T03:29:30.939Z,0.70
2022-09-15T03:31:58.877Z,0.60
2022-09-15T03:34:26.799Z,0.70
2022-09-15T03:36:56.045Z,0.50
2022-09-15T03:39:24.324Z,0.53
2022-09-15T03:41:52.223Z,0.50
2022-09-15T03:44:20.123Z,0.40
2022-09-15T03:46:48.252Z,0.40
2022-09-15T03:49:16.104Z,0.40
2022-09-15T03:51:44.606Z,0.50
2022-09-15T03:54:14.018Z,0.40
2022-09-15T03:56:41.918Z,0.50
2022-09-15T03:59:10.565Z,0.60
2022-09-15T04:01:38.507Z,0.57
2022-09-15T04:04:06.893Z,0.30
2022-09-15T04:06:35.409Z,0.70
2022-09-15T04:09:03.313Z,0.50
2022-09-15T04:11:34.063Z,0.60
2022-09-15T04:14:02.023Z,0.40
2022-09-15T04:16:30.222Z,0.37
2022-09-15T04:18:58.628Z,0.50
2022-09-15T04:21:27.715Z,0.67
2022-09-15T04:23:55.860Z,0.67
2022-09-15T04:26:27.003Z,0.50
2022-09-15T04:28:58.676Z,0.50
2022-09-15T04:31:28.670Z,0.47
2022-09-15T04:33:57.167Z,0.50
2022-09-15T04:36:27.378Z,0.50
2022-09-15T04:38:56.192Z,0.80
2022-09-15T04:41:24.465Z,0.60
2022-09-15T04:43:52.779Z,0.60
2022-09-15T04:46:22.186Z,0.40
2022-09-15T04:48:50.260Z,0.40
2022-09-15T04:51:20.330Z,0.60
2022-09-15T04:53:49.043Z,0.50
2022-09-15T04:56:19.119Z,0.60
2022-09-15T04:58:48.787Z,0.40
2022-09-15T05:01:19.085Z,0.63
2022-09-15T05:03:49.127Z,0.70
2022-09-15T05:06:19.300Z,0.60
2022-09-15T05:08:49.014Z,0.60
2022-09-15T05:11:17.654Z,0.60
2022-09-15T05:13:45.610Z,0.73
2022-09-15T05:16:15.908Z,0.50
2022-09-15T05:18:45.454Z,0.70
2022-09-15T05:21:16.602Z,0.80
2022-09-15T05:23:44.901Z,0.60
2022-09-15T05:26:17.075Z,0.90
2022-09-15T05:28:46.085Z,0.80
2022-09-15T05:31:17.855Z,0.97
2022-09-15T05:33:46.177Z,0.83
2022-09-15T05:36:17.258Z,0.93
2022-09-15T05:38:45.261Z,1.20
2022-09-15T05:41:16.921Z,1.40
2022-09-15T05:43:46.409Z,0.77
2022-09-15T05:46:15.803Z,0.73
2022-09-15T05:48:44.125Z,1.40
2022-09-15T05:51:12.796Z,0.50
2022-09-15T05:53:42.269Z,0.70
2022-09-15T05:56:12.967Z,0.80
2022-09-15T05:58:42.291Z,1.00
2022-09-15T06:01:13.293Z,1.07
2022-09-15T06:03:41.692Z,1.10
2022-09-15T06:06:09.893Z,1.13
2022-09-15T06:08:43.715Z,2.70
2022-09-15T06:11:16.146Z,1.33
2022-09-15T06:13:44.638Z,1.40
2022-09-15T06:16:14.122Z,1.63
2022-09-15T06:18:42.940Z,2.70
2022-09-15T06:21:12.354Z,2.10
2022-09-15T06:23:40.927Z,2.30
2022-09-15T06:26:11.324Z,2.90
2022-09-15T06:28:42.181Z,3.00
2022-09-15T06:31:15.127Z,3.33
2022-09-15T06:33:44.650Z,3.03
2022-09-15T06:36:13.305Z,3.13
2022-09-15T06:38:41.651Z,3.00
2022-09-15T06:41:10.451Z,2.60
2022-09-15T06:43:38.557Z,3.07
2022-09-15T06:46:10.048Z,2.70
2022-09-15T06:48:38.602Z,2.77
2022-09-15T06:51:07.947Z,2.87
2022-09-15T06:53:38.083Z,3.23
2022-09-15T06:56:08.162Z,4.10
2022-09-15T06:58:37.089Z,2.33
2022-09-15T07:01:09.736Z,1.90
2022-09-15T07:03:39.230Z,2.40
2022-09-15T07:06:08.424Z,2.10
2022-09-15T07:08:36.369Z,2.60
2022-09-15T07:11:04.518Z,2.20
2022-09-15T07:13:32.432Z,2.17
2022-09-15T07:16:01.651Z,2.30
2022-09-15T07:18:31.956Z,2.10
2022-09-15T07:21:00.863Z,2.77
2022-09-15T07:23:29.405Z,2.83
2022-09-15T07:26:07.365Z,3.07
2022-09-15T07:28:35.418Z,3.40
2022-09-15T07:31:04.336Z,3.20
2022-09-15T07:33:34.260Z,2.73
2022-09-15T07:36:02.809Z,2.30
2022-09-15T07:38:30.740Z,2.47
2022-09-15T07:41:04.285Z,2.60
2022-09-15T07:43:32.225Z,4.13
2022-09-15T07:46:01.703Z,3.67
2022-09-15T07:48:30.181Z,3.40
2022-09-15T07:50:59.956Z,2.90
2022-09-15T07:53:30.063Z,2.70
2022-09-15T07:55:58.329Z,2.83
2022-09-15T07:58:26.814Z,3.30
2022-09-15T08:00:54.832Z,2.70
2022-09-15T08:03:22.763Z,2.30
2022-09-15T08:05:50.641Z,2.70
2022-09-15T08:08:19.892Z,2.10
2022-09-15T08:10:47.837Z,2.87
2022-09-15T08:13:15.841Z,3.03
2022-09-15T08:15:45.476Z,2.80
2022-09-15T08:18:13.424Z,1.77
2022-09-15T08:20:41.934Z,1.90
2022-09-15T08:23:09.929Z,2.20
2022-09-15T08:25:39.512Z,1.57
2022-09-15T08:28:08.077Z,1.63
2022-09-15T08:30:35.991Z,1.90
2022-09-15T08:33:03.846Z,1.90
2022-09-15T08:35:32.410Z,2.37
2022-09-15T08:38:00.263Z,2.37
2022-09-15T08:40:36.032Z,2.17
2022-09-15T08:43:16.767Z,2.13
2022-09-15T08:45:51.133Z,1.80
2022-09-15T08:48:22.611Z,1.97
2022-09-15T08:50:53.025Z,1.67
2022-09-15T08:53:25.479Z,2.00
2022-09-15T08:55:55.676Z,2.13
2022-09-15T08:58:26.929Z,2.20
2022-09-15T09:01:01.300Z,1.57
2022-09-15T09:03:59.993Z,1.77
2022-09-15T09:06:36.140Z,1.80
2022-09-15T09:09:16.543Z,1.50
2022-09-15T09:12:03.812Z,1.50
2022-09-15T09:14:46.192Z,1.70
2022-09-15T09:17:30.159Z,1.30
2022-09-15T09:20:25.830Z,1.27
2022-09-15T09:22:56.003Z,1.00
2022-09-15T09:25:28.572Z,1.37
2022-09-15T09:27:59.071Z,1.63
2022-09-15T09:30:33.091Z,1.80
2022-09-15T09:33:25.805Z,1.80
2022-09-15T09:35:54.165Z,1.50
2022-09-15T09:38:26.212Z,2.13
2022-09-15T09:40:58.599Z,1.90
2022-09-15T09:43:30.403Z,2.00
2022-09-15T09:46:00.633Z,1.27
2022-09-15T09:48:29.849Z,1.60
2022-09-15T09:50:57.954Z,1.80
2022-09-15T09:53:28.722Z,1.30
2022-09-15T09:56:17.205Z,1.40
2022-09-15T09:58:46.055Z,1.90
2022-09-15T10:01:17.650Z,1.80
2022-09-15T10:03:46.290Z,1.10
2022-09-15T10:06:16.960Z,1.10
2022-09-15T10:08:56.309Z,1.70
2022-09-15T10:11:41.137Z,0.90
2022-09-15T10:14:19.716Z,1.30
2022-09-15T10:16:59.592Z,1.00
2022-09-15T10:19:28.664Z,0.80
2022-09-15T10:21:58.077Z,1.50
2022-09-15T10:24:33.498Z,0.93
2022-09-15T10:27:19.349Z,1.40
2022-09-15T10:29:47.922Z,1.40
2022-09-15T10:32:25.423Z,1.37
2022-09-15T10:35:02.005Z,1.37
2022-09-15T10:37:38.102Z,1.77
2022-09-15T10:40:28.256Z,1.27
2022-09-15T10:43:02.435Z,1.20
2022-09-15T10:45:34.960Z,1.30
2022-09-15T10:48:29.385Z,1.67
2022-09-15T10:51:03.919Z,1.50
2022-09-15T10:53:56.730Z,1.57
2022-09-15T10:56:30.416Z,1.30
2022-09-15T10:59:21.225Z,1.43
2022-09-15T11:02:03.613Z,1.37
2022-09-15T11:04:46.965Z,1.20
2022-09-15T11:07:24.088Z,1.47
2022-09-15T11:09:57.518Z,1.13
2022-09-15T11:12:39.399Z,1.40
2022-09-15T11:15:22.738Z,1.40
2022-09-15T11:18:06.237Z,1.40
2022-09-15T11:20:56.554Z,1.10
2022-09-15T11:23:30.315Z,1.20
2022-09-15T11:26:04.222Z,1.50
2022-09-15T11:28:37.140Z,1.70
2022-09-15T11:31:14.341Z,1.30
2022-09-15T11:33:49.818Z,1.80
2022-09-15T11:36:23.926Z,1.80
2022-09-15T11:38:57.676Z,1.60
2022-09-15T11:41:33.069Z,1.70
2022-09-15T11:44:16.833Z,1.73
2022-09-15T11:47:15.603Z,1.57
2022-09-15T11:49:49.831Z,1.80
2022-09-15T11:52:50.202Z,1.70
2022-09-15T11:55:28.322Z,2.10
2022-09-15T11:58:04.371Z,2.07
2022-09-15T12:00:32.576Z,1.90
2022-09-15T12:03:13.642Z,2.17
2022-09-15T12:05:46.332Z,2.70
2022-09-15T12:08:20.360Z,2.37
2022-09-15T12:10:52.275Z,1.70
2022-09-15T12:13:22.488Z,2.10
2022-09-15T12:15:51.507Z,2.10
2022-09-15T12:18:39.032Z,2.23
2022-09-15T12:21:16.610Z,2.03
2022-09-15T12:23:52.215Z,2.67
2022-09-15T12:26:22.140Z,1.93
2022-09-15T12:28:55.348Z,2.20
2022-09-15T12:31:32.213Z,2.43
2022-09-15T12:34:02.187Z,2.27
2022-09-15T12:36:42.007Z,2.13
2022-09-15T12:39:27.302Z,2.37
2022-09-15T12:42:04.756Z,2.37
2022-09-15T12:44:37.553Z,2.00
2022-09-15T12:47:08.754Z,1.90
2022-09-15T12:49:44.491Z,2.50
2022-09-15T12:52:13.397Z,2.30
2022-09-15T12:54:50.895Z,2.20
2022-09-15T12:57:24.140Z,2.30
2022-09-15T13:00:27.675Z,2.07
2022-09-15T13:02:56.723Z,1.90
2022-09-15T13:06:06.626Z,1.90
2022-09-15T13:08:51.741Z,3.00
2022-09-15T13:11:31.769Z,1.90
2022-09-15T13:14:16.254Z,2.17
2022-09-15T13:16:50.905Z,2.00
2022-09-15T13:19:23.812Z,2.03
2022-09-15T13:21:58.942Z,2.70
2022-09-15T13:24:42.696Z,2.40
2022-09-15T13:27:13.064Z,1.73
2022-09-15T13:29:49.145Z,2.53
2022-09-15T13:32:28.963Z,2.53
2022-09-15T13:35:22.482Z,2.20
2022-09-15T13:38:26.483Z,2.43
2022-09-15T13:41:37.214Z,1.80
2022-09-15T13:44:20.585Z,2.87
2022-09-15T13:47:00.215Z,2.30
2022-09-15T13:49:49.581Z,1.80
2022-09-15T13:52:32.447Z,2.33
2022-09-15T13:55:17.180Z,2.00
2022-09-15T14:00:49.369Z,2.33
2022-09-15T14:03:23.818Z,2.10
2022-09-15T14:05:51.848Z,2.43
2022-09-15T14:08:24.202Z,2.00
2022-09-15T14:10:55.012Z,2.00
2022-09-15T14:13:26.590Z,1.70
2022-09-15T14:16:00.587Z,1.53
2022-09-15T14:18:28.999Z,1.73
2022-09-15T14:21:02.418Z,1.60
2022-09-15T14:23:31.047Z,2.27
2022-09-15T14:26:01.514Z,1.67
2022-09-15T14:28:33.216Z,1.77
2022-09-15T14:31:03.586Z,2.37
2022-09-15T14:33:38.186Z,1.90
2022-09-15T14:36:14.795Z,1.30
2022-09-15T14:38:42.789Z,1.80
2022-09-15T14:41:20.371Z,1.87
2022-09-15T14:43:48.273Z,1.50
2022-09-15T14:46:19.317Z,1.60
2022-09-15T14:48:47.330Z,1.30
2022-09-15T14:51:20.649Z,1.40
2022-09-15T14:53:51.809Z,1.33
2022-09-15T14:56:22.675Z,1.90
2022-09-15T14:58:53.799Z,1.60
2022-09-15T15:01:27.488Z,1.70
2022-09-15T15:04:01.540Z,1.83
2022-09-15T15:06:34.365Z,1.80
2022-09-15T15:09:06.944Z,1.50
2022-09-15T15:11:37.501Z,1.27
2022-09-15T15:14:08.325Z,1.40
2022-09-15T15:16:38.132Z,1.30
2022-09-15T15:19:06.198Z,1.60
2022-09-15T15:21:42.580Z,1.27
2022-09-15T15:24:18.246Z,1.50
2022-09-15T15:26:47.201Z,1.50
2022-09-15T15:29:42.517Z,1.83
2022-09-15T15:32:16.205Z,1.50
2022-09-15T15:34:50.946Z,1.23
2022-09-15T15:37:26.388Z,1.40
2022-09-15T15:39:55.828Z,1.57
2022-09-15T15:42:25.465Z,1.50
2022-09-15T15:45:01.516Z,1.70
2022-09-15T15:47:33.181Z,1.40
2022-09-15T15:50:13.233Z,1.50
2022-09-15T15:52:42.341Z,1.67
2022-09-15T15:55:14.931Z,1.60
2022-09-15T15:57:43.065Z,0.93
2022-09-15T16:00:21.518Z,1.70
2022-09-15T16:02:51.601Z,1.60
2022-09-15T16:05:20.585Z,1.43
2022-09-15T16:07:50.990Z,1.33
2022-09-15T16:10:22.410Z,1.67
2022-09-15T16:12:50.526Z,1.80
2022-09-15T16:15:22.731Z,1.30
2022-09-15T16:17:52.066Z,1.50
2022-09-15T16:20:20.737Z,1.20
2022-09-15T16:22:49.090Z,1.20
2022-09-15T16:25:19.211Z,1.10
2022-09-15T16:27:47.106Z,1.10
2022-09-15T16:30:15.058Z,1.60
2022-09-15T16:32:42.930Z,1.50
2022-09-15T16:35:32.453Z,2.70
2022-09-15T16:38:00.408Z,1.53
2022-09-15T16:40:28.473Z,1.60
2022-09-15T16:42:56.394Z,1.53
2022-09-15T16:45:30.690Z,1.37
2022-09-15T16:47:58.749Z,1.07
2022-09-15T16:50:28.613Z,1.50
2022-09-15T16:52:57.031Z,1.60
2022-09-15T16:55:33.906Z,1.70
2022-09-15T16:58:01.798Z,1.77
2022-09-15T17:00:30.325Z,1.30
2022-09-15T17:02:58.687Z,1.30
2022-09-15T17:05:30.587Z,2.37
2022-09-15T17:07:58.659Z,1.90
2022-09-15T17:10:26.558Z,1.30
2022-09-15T17:12:54.758Z,1.57
2022-09-15T17:15:25.762Z,1.37
2022-09-15T17:17:53.987Z,1.80
2022-09-15T17:20:22.963Z,1.70
2022-09-15T17:22:53.231Z,1.60
2022-09-15T17:25:28.167Z,2.00
2022-09-15T17:27:56.793Z,1.87
2022-09-15T17:30:27.527Z,1.70
2022-09-15T17:33:03.244Z,2.20
2022-09-15T17:35:34.373Z,1.90
2022-09-15T17:38:04.257Z,2.00
2022-09-15T17:40:33.513Z,2.00
2022-09-15T17:43:01.919Z,1.57
2022-09-15T17:45:33.027Z,1.90
2022-09-15T17:48:01.227Z,1.73
2022-09-15T17:50:30.552Z,1.90
2022-09-15T17:52:59.167Z,1.40
2022-09-15T17:55:30.961Z,2.70
2022-09-15T17:58:00.244Z,1.70
2022-09-15T18:00:31.943Z,1.50
2022-09-15T18:03:01.883Z,1.90
2022-09-15T18:05:31.962Z,1.77
2022-09-15T18:08:03.161Z,1.60
2022-09-15T18:10:34.070Z,1.53
2022-09-15T18:13:02.829Z,1.80
2022-09-15T18:15:32.864Z,1.70
2022-09-15T18:18:03.924Z,2.17
2022-09-15T18:20:34.042Z,2.20
2022-09-15T18:23:02.014Z,1.80
2022-09-15T18:25:33.622Z,1.53
2022-09-15T18:28:02.330Z,1.67
2022-09-15T18:30:32.577Z,1.80
2022-09-15T18:33:01.080Z,1.50
2022-09-15T18:35:29.069Z,1.63
2022-09-15T18:37:58.521Z,1.53
2022-09-15T18:40:27.529Z,1.80
2022-09-15T18:42:56.811Z,2.00
2022-09-15T18:45:24.843Z,2.20
2022-09-15T18:47:54.793Z,2.23
2022-09-15T18:50:25.273Z,2.17
2022-09-15T18:52:53.423Z,2.27
2022-09-15T18:55:24.769Z,1.83
2022-09-15T18:57:53.006Z,2.90
2022-09-15T19:00:26.902Z,2.00
2022-09-15T19:02:57.498Z,2.07
2022-09-15T19:05:26.289Z,2.63
2022-09-15T19:07:55.272Z,2.27
2022-09-15T19:10:23.726Z,1.77
2022-09-15T19:12:51.842Z,1.80
2022-09-15T19:15:23.598Z,2.67
2022-09-15T19:17:53.475Z,2.70
2022-09-15T19:20:21.602Z,2.70
2022-09-15T19:22:51.488Z,2.47
2022-09-15T19:25:19.653Z,2.40
2022-09-15T19:27:47.910Z,2.60
2022-09-15T19:30:15.854Z,2.60
2022-09-15T19:32:44.255Z,2.57
2022-09-15T19:35:13.453Z,3.80
2022-09-15T19:37:42.589Z,2.73
2022-09-15T19:40:13.166Z,2.73
2022-09-15T19:42:42.151Z,2.70
2022-09-15T19:45:11.789Z,2.50
2022-09-15T19:47:40.620Z,3.20
2022-09-15T19:50:11.609Z,2.40
2022-09-15T19:52:41.160Z,2.80
2022-09-15T19:55:10.137Z,2.93
2022-09-15T19:57:39.741Z,2.20
2022-09-15T20:00:09.759Z,2.53
2022-09-15T20:02:37.722Z,2.87
2022-09-15T20:05:06.352Z,3.93
2022-09-15T20:07:34.327Z,3.33
2022-09-15T20:10:03.675Z,8.27
2022-09-15T20:12:31.594Z,4.17
2022-09-15T20:14:59.454Z,4.33
2022-09-15T20:17:27.800Z,4.53
2022-09-15T20:19:55.777Z,3.63
2022-09-15T20:22:24.031Z,4.17
2022-09-15T20:24:52.067Z,3.30
2022-09-15T20:27:21.322Z,3.70
2022-09-15T20:29:49.325Z,3.87
2022-09-15T20:32:17.348Z,3.70
2022-09-15T20:34:45.270Z,3.83
2022-09-15T20:37:13.153Z,3.60
2022-09-15T20:39:41.221Z,3.60
2022-09-15T20:42:09.078Z,3.57
2022-09-15T20:44:38.317Z,3.73
2022-09-15T20:47:06.613Z,4.20
2022-09-15T20:49:34.490Z,3.63
2022-09-15T20:52:02.532Z,3.30
2022-09-15T20:54:30.418Z,3.00
2022-09-15T20:56:58.262Z,3.43
2022-09-15T20:59:26.091Z,3.47
2022-09-15T21:01:55.418Z,3.93
2022-09-15T21:04:23.315Z,3.27
2022-09-15T21:06:51.183Z,4.37
2022-09-15T21:09:19.211Z,3.30
2022-09-15T21:11:52.721Z,3.73
2022-09-15T21:14:21.337Z,3.80
2022-09-15T21:16:49.264Z,2.93
2022-09-15T21:19:18.538Z,3.23
2022-09-15T21:21:46.457Z,3.30
2022-09-15T21:24:14.390Z,2.93
2022-09-15T21:26:57.052Z,3.43
2022-09-15T21:29:25.206Z,3.03
2022-09-15T21:31:53.200Z,3.40
2022-09-15T21:34:22.499Z,3.30
2022-09-15T21:36:51.744Z,2.90
2022-09-15T21:39:19.654Z,3.80
2022-09-15T21:41:47.566Z,2.33
2022-09-15T21:44:15.560Z,2.60
2022-09-15T21:46:44.917Z,2.50
2022-09-15T21:49:12.752Z,3.33
2022-09-15T21:51:42.004Z,3.53
2022-09-15T21:54:10.154Z,2.93
2022-09-15T21:56:38.362Z,3.03
2022-09-15T21:59:08.951Z,2.60
2022-09-15T22:01:36.891Z,3.60
2022-09-15T22:04:07.385Z,2.97
2022-09-15T22:06:37.134Z,2.73
2022-09-15T22:09:09.042Z,3.00
2022-09-15T22:11:37.073Z,3.23
2022-09-15T22:14:08.139Z,2.70
2022-09-15T22:16:37.135Z,3.20
2022-09-15T22:19:06.951Z,3.47
2022-09-15T22:21:36.862Z,2.60
2022-09-15T22:24:07.856Z,3.10
2022-09-15T22:26:37.952Z,3.00
2022-09-15T22:29:06.023Z,3.00
2022-09-15T22:31:34.120Z,2.93
2022-09-15T22:34:02.038Z,3.40
2022-09-15T22:36:31.384Z,3.93
2022-09-15T22:39:04.525Z,3.00
2022-09-15T22:41:36.081Z,3.10
2022-09-15T22:44:05.072Z,2.43
2022-09-15T22:46:33.508Z,2.90
2022-09-15T22:49:01.668Z,2.57
2022-09-15T22:51:29.686Z,3.53
2022-09-15T22:53:58.449Z,3.70
2022-09-15T22:56:27.105Z,3.00
2022-09-15T22:58:57.716Z,2.57
2022-09-15T23:01:27.076Z,2.67
2022-09-15T23:03:56.754Z,2.90
2022-09-15T23:06:26.523Z,3.23
2022-09-15T23:08:55.911Z,3.20
2022-09-15T23:11:24.173Z,2.83
2022-09-15T23:13:53.254Z,2.97
2022-09-15T23:16:24.095Z,2.90
2022-09-15T23:18:52.204Z,3.13
2022-09-15T23:21:21.185Z,2.87
2022-09-15T23:23:49.826Z,2.30
2022-09-15T23:26:19.354Z,2.90
2022-09-15T23:28:49.201Z,2.43
2022-09-15T23:31:17.835Z,2.40
2022-09-15T23:33:47.588Z,2.90
2022-09-15T23:36:19.315Z,2.50
2022-09-15T23:38:47.905Z,2.27
2022-09-15T23:41:16.957Z,2.10
2022-09-15T23:43:45.197Z,2.67
2022-09-15T23:46:13.270Z,2.40
2022-09-15T23:48:41.333Z,2.70
2022-09-15T23:51:10.710Z,2.60
2022-09-15T23:53:38.606Z,2.97
2022-09-15T23:56:07.048Z,2.27
2022-09-15T23:58:35.080Z,3.00
